createdAt,value
2023-01-25T00:00:15.146Z,1.30
2023-01-25T00:02:42.614Z,1.30
2023-01-25T00:05:09.832Z,1.30
2023-01-25T00:07:36.650Z,1.30
2023-01-25T00:10:03.682Z,1.30
2023-01-25T00:12:30.486Z,1.30
2023-01-25T00:14:57.114Z,1.30
2023-01-25T00:17:23.889Z,1.30
2023-01-25T00:19:50.605Z,1.30
2023-01-25T00:22:17.358Z,1.40
2023-01-25T00:24:44.069Z,1.30
2023-01-25T00:27:10.704Z,1.30
2023-01-25T00:30:15.242Z,1.30
2023-01-25T00:32:49.221Z,1.30
2023-01-25T00:35:15.837Z,1.30
2023-01-25T00:37:46.860Z,1.30
2023-01-25T00:40:13.718Z,1.30
2023-01-25T00:42:41.027Z,1.30
2023-01-25T00:45:08.881Z,1.30
2023-01-25T00:47:35.726Z,1.30
2023-01-25T00:50:02.297Z,1.20
2023-01-25T00:52:29.057Z,1.20
2023-01-25T00:54:55.763Z,1.20
2023-01-25T00:57:22.461Z,1.20
2023-01-25T00:59:49.202Z,1.20
2023-01-25T01:02:15.907Z,1.20
2023-01-25T01:04:42.746Z,1.20
2023-01-25T01:07:12.085Z,1.20
2023-01-25T01:09:38.816Z,1.20
2023-01-25T01:12:05.550Z,1.20
2023-01-25T01:15:28.596Z,1.20
2023-01-25T01:18:51.461Z,1.20
2023-01-25T01:21:18.120Z,1.30
2023-01-25T01:23:45.061Z,1.20
2023-01-25T01:26:14.565Z,1.30
2023-01-25T01:28:42.133Z,1.30
2023-01-25T01:31:14.785Z,1.30
2023-01-25T01:33:41.756Z,1.20
2023-01-25T01:36:14.539Z,1.30
2023-01-25T01:38:42.300Z,1.30
2023-01-25T01:41:09.764Z,1.20
2023-01-25T01:43:37.179Z,1.30
2023-01-25T01:46:09.485Z,1.30
2023-01-25T01:48:57.268Z,1.30
2023-01-25T01:52:00.232Z,1.30
2023-01-25T01:54:36.192Z,1.30
2023-01-25T01:57:10.632Z,1.30
2023-01-25T02:00:06.541Z,1.20
2023-01-25T02:02:33.572Z,1.20
2023-01-25T02:05:05.524Z,1.20
2023-01-25T02:07:35.467Z,1.20
2023-01-25T02:10:06.697Z,1.20
2023-01-25T02:12:33.657Z,1.20
2023-01-25T02:15:00.316Z,1.30
2023-01-25T02:17:29.951Z,1.30
2023-01-25T02:20:26.026Z,1.30
2023-01-25T02:23:15.448Z,1.30
2023-01-25T02:25:42.355Z,1.20
2023-01-25T02:28:18.759Z,1.30
2023-01-25T02:30:46.566Z,1.30
2023-01-25T02:33:13.650Z,1.30
2023-01-25T02:35:53.879Z,1.30
2023-01-25T02:38:21.358Z,1.40
2023-01-25T02:40:56.338Z,1.30
2023-01-25T02:43:24.839Z,1.30
2023-01-25T02:46:00.443Z,1.40
2023-01-25T02:48:27.227Z,1.30
2023-01-25T02:50:53.890Z,1.30
2023-01-25T02:53:20.667Z,1.40
2023-01-25T02:55:47.315Z,1.30
2023-01-25T02:58:14.051Z,1.30
2023-01-25T03:00:40.918Z,1.30
2023-01-25T03:03:07.587Z,1.40
2023-01-25T03:05:34.310Z,1.40
2023-01-25T03:08:01.060Z,1.40
2023-01-25T03:10:27.842Z,1.40
2023-01-25T03:12:54.605Z,1.40
2023-01-25T03:15:21.269Z,1.40
2023-01-25T03:17:47.951Z,1.40
2023-01-25T03:20:14.771Z,1.40
2023-01-25T03:22:41.553Z,1.40
2023-01-25T03:25:09.119Z,1.30
2023-01-25T03:27:36.011Z,1.30
2023-01-25T03:30:02.801Z,1.30
2023-01-25T03:32:29.691Z,1.30
2023-01-25T03:34:56.505Z,1.40
2023-01-25T03:37:23.350Z,1.40
2023-01-25T03:39:50.104Z,1.40
2023-01-25T03:42:16.775Z,1.30
2023-01-25T03:44:43.433Z,1.30
2023-01-25T03:47:10.258Z,1.30
2023-01-25T03:49:36.906Z,1.30
2023-01-25T03:52:03.996Z,1.20
2023-01-25T03:54:30.961Z,1.30
2023-01-25T03:56:57.635Z,1.30
2023-01-25T03:59:24.496Z,1.20
2023-01-25T04:01:51.374Z,1.30
2023-01-25T04:04:18.052Z,1.30
2023-01-25T04:06:44.828Z,1.40
2023-01-25T04:09:14.084Z,1.40
2023-01-25T04:11:41.383Z,1.30
2023-01-25T04:14:08.212Z,1.40
2023-01-25T04:16:36.132Z,1.40
2023-01-25T04:19:03.020Z,1.30
2023-01-25T04:21:29.905Z,1.30
2023-01-25T04:23:56.647Z,1.30
2023-01-25T04:26:23.519Z,1.30
2023-01-25T04:28:50.222Z,1.30
2023-01-25T04:31:17.077Z,1.30
2023-01-25T04:33:43.931Z,1.20
2023-01-25T04:36:10.710Z,1.30
2023-01-25T04:38:37.332Z,1.30
2023-01-25T04:41:05.349Z,1.30
2023-01-25T04:43:32.006Z,1.30
2023-01-25T04:46:01.955Z,1.30
2023-01-25T04:48:28.913Z,1.30
2023-01-25T04:50:55.636Z,1.30
2023-01-25T04:53:22.379Z,1.30
2023-01-25T04:55:49.201Z,1.30
2023-01-25T04:58:16.020Z,1.30
2023-01-25T05:00:42.770Z,1.30
2023-01-25T05:03:09.452Z,1.30
2023-01-25T05:05:36.156Z,1.30
2023-01-25T05:08:02.930Z,1.30
2023-01-25T05:10:29.607Z,1.30
2023-01-25T05:12:56.270Z,1.30
2023-01-25T05:15:23.080Z,1.30
2023-01-25T05:17:49.814Z,1.40
2023-01-25T05:20:16.739Z,1.40
2023-01-25T05:22:43.442Z,1.40
2023-01-25T05:25:30.107Z,1.40
2023-01-25T05:27:56.820Z,1.40
2023-01-25T05:30:23.465Z,1.40
2023-01-25T05:32:50.674Z,1.40
2023-01-25T05:35:17.761Z,1.40
2023-01-25T05:37:44.670Z,1.30
2023-01-25T05:40:11.833Z,1.30
2023-01-25T05:42:38.682Z,1.30
2023-01-25T05:45:06.009Z,1.30
2023-01-25T05:47:32.783Z,1.40
2023-01-25T05:49:59.514Z,1.40
2023-01-25T05:52:26.789Z,1.40
2023-01-25T05:54:53.609Z,1.40
2023-01-25T05:57:20.414Z,1.40
2023-01-25T05:59:47.087Z,1.40
2023-01-25T06:02:13.793Z,1.40
2023-01-25T06:04:40.502Z,1.40
2023-01-25T06:07:07.140Z,1.40
2023-01-25T06:09:33.924Z,1.40
2023-01-25T06:12:00.677Z,1.30
2023-01-25T06:14:27.297Z,1.30
2023-01-25T06:16:53.953Z,1.30
2023-01-25T06:19:20.574Z,1.30
2023-01-25T06:21:47.380Z,1.40
2023-01-25T06:24:14.114Z,1.40
2023-01-25T06:26:40.808Z,1.30
2023-01-25T06:29:07.809Z,1.30
2023-01-25T06:31:34.968Z,1.30
2023-01-25T06:34:04.439Z,1.30
2023-01-25T06:36:31.233Z,1.30
2023-01-25T06:38:58.308Z,1.30
2023-01-25T06:41:25.536Z,1.30
2023-01-25T06:43:53.141Z,1.30
2023-01-25T06:46:20.297Z,1.30
2023-01-25T06:48:47.187Z,1.30
2023-01-25T06:51:15.184Z,1.40
2023-01-25T06:53:43.955Z,1.40
2023-01-25T06:56:17.800Z,1.40
2023-01-25T06:58:45.194Z,1.30
2023-01-25T07:01:20.007Z,1.40
2023-01-25T07:03:51.650Z,1.50
2023-01-25T07:06:19.004Z,1.50
2023-01-25T07:08:45.881Z,1.50
2023-01-25T07:11:13.905Z,1.50
2023-01-25T07:13:47.917Z,1.50
2023-01-25T07:16:19.061Z,1.50
2023-01-25T07:18:46.205Z,1.50
2023-01-25T07:21:20.202Z,1.50
2023-01-25T07:23:47.667Z,1.50
2023-01-25T07:26:24.432Z,1.50
2023-01-25T07:28:52.527Z,1.50
2023-01-25T07:31:20.213Z,1.50
2023-01-25T07:33:55.231Z,1.50
2023-01-25T07:36:22.631Z,1.50
2023-01-25T07:38:52.727Z,1.50
2023-01-25T07:41:19.385Z,1.60
2023-01-25T07:43:46.107Z,1.50
2023-01-25T07:46:14.207Z,1.60
2023-01-25T07:48:45.488Z,1.60
2023-01-25T07:51:12.269Z,1.60
2023-01-25T07:53:40.126Z,1.60
2023-01-25T07:56:07.606Z,1.60
2023-01-25T07:58:34.716Z,1.60
2023-01-25T08:01:07.838Z,1.70
2023-01-25T08:03:34.807Z,1.70
2023-01-25T08:06:01.607Z,1.70
2023-01-25T08:08:28.350Z,1.80
2023-01-25T08:10:54.994Z,1.80
2023-01-25T08:13:21.833Z,1.80
2023-01-25T08:15:55.976Z,1.80
2023-01-25T08:18:22.918Z,1.80
2023-01-25T08:20:49.585Z,1.70
2023-01-25T08:23:16.324Z,1.80
2023-01-25T08:25:43.153Z,1.80
2023-01-25T08:28:09.819Z,1.80
2023-01-25T08:30:36.671Z,1.80
2023-01-25T08:33:06.029Z,1.90
2023-01-25T08:35:32.678Z,1.80
2023-01-25T08:37:59.335Z,1.90
2023-01-25T08:40:26.198Z,1.80
2023-01-25T08:42:53.254Z,1.80
2023-01-25T08:45:20.243Z,1.80
2023-01-25T08:47:46.966Z,1.80
2023-01-25T08:50:13.793Z,1.80
2023-01-25T08:52:40.541Z,1.80
2023-01-25T08:55:07.526Z,1.80
2023-01-25T08:57:34.363Z,1.80
2023-01-25T09:00:01.143Z,1.80
2023-01-25T09:02:27.855Z,1.70
2023-01-25T09:04:54.494Z,1.80
2023-01-25T09:07:21.238Z,1.70
2023-01-25T09:09:47.992Z,1.70
2023-01-25T09:12:14.636Z,1.70
2023-01-25T09:14:41.457Z,1.60
2023-01-25T09:17:09.610Z,1.60
2023-01-25T09:19:36.383Z,1.70
2023-01-25T09:22:03.645Z,1.70
2023-01-25T09:24:30.481Z,1.60
2023-01-25T09:27:00.154Z,1.60
2023-01-25T09:29:27.259Z,1.60
2023-01-25T09:31:54.176Z,1.60
2023-01-25T09:34:22.258Z,1.70
2023-01-25T09:36:59.247Z,1.70
2023-01-25T09:39:26.005Z,1.80
2023-01-25T09:42:14.070Z,1.80
2023-01-25T09:45:14.923Z,1.80
2023-01-25T09:47:48.117Z,1.70
2023-01-25T09:50:34.398Z,1.70
2023-01-25T09:53:13.072Z,1.70
2023-01-25T09:55:40.120Z,1.70
2023-01-25T09:58:17.219Z,1.70
2023-01-25T10:00:51.515Z,1.70
2023-01-25T10:03:44.162Z,1.70
2023-01-25T10:06:14.272Z,1.60
2023-01-25T10:08:51.710Z,1.70
2023-01-25T10:11:31.421Z,1.60
2023-01-25T10:13:59.053Z,1.60
2023-01-25T10:16:44.225Z,1.60
2023-01-25T10:19:46.301Z,1.60
2023-01-25T10:22:36.253Z,1.60
2023-01-25T10:25:30.910Z,1.60
2023-01-25T10:28:12.508Z,1.50
2023-01-25T10:31:06.082Z,1.50
2023-01-25T10:33:40.377Z,1.60
2023-01-25T10:36:09.832Z,1.60
2023-01-25T10:38:42.384Z,1.60
2023-01-25T10:41:40.742Z,1.60
2023-01-25T10:44:24.709Z,1.60
2023-01-25T10:47:17.804Z,1.60
2023-01-25T10:50:07.829Z,1.70
2023-01-25T10:52:37.800Z,1.70
2023-01-25T10:55:26.178Z,1.70
2023-01-25T10:57:57.969Z,1.70
2023-01-25T11:00:38.619Z,1.70
2023-01-25T11:03:06.364Z,1.60
2023-01-25T11:05:35.748Z,1.70
2023-01-25T11:08:17.728Z,1.70
2023-01-25T11:10:46.040Z,1.70
2023-01-25T11:13:16.004Z,1.70
2023-01-25T11:15:44.870Z,1.70
2023-01-25T11:18:20.277Z,1.70
2023-01-25T11:20:47.556Z,1.70
2023-01-25T11:23:24.690Z,1.70
2023-01-25T11:25:52.456Z,1.70
2023-01-25T11:28:22.110Z,1.70
2023-01-25T11:30:50.990Z,1.70
2023-01-25T11:33:20.455Z,1.70
2023-01-25T11:36:02.126Z,1.60
2023-01-25T11:38:29.147Z,1.60
2023-01-25T11:41:25.104Z,1.60
2023-01-25T11:44:21.686Z,1.60
2023-01-25T11:47:16.871Z,1.60
2023-01-25T11:49:59.431Z,1.50
2023-01-25T11:52:35.079Z,1.50
2023-01-25T11:55:12.936Z,1.50
2023-01-25T11:58:05.721Z,1.50
2023-01-25T12:00:59.189Z,1.50
2023-01-25T12:03:51.399Z,1.50
2023-01-25T12:06:24.877Z,1.60
2023-01-25T12:09:22.379Z,1.60
2023-01-25T12:11:51.783Z,1.50
2023-01-25T12:14:18.401Z,1.50
2023-01-25T12:17:03.686Z,1.50
2023-01-25T12:19:43.347Z,1.50
2023-01-25T12:22:28.900Z,1.50
2023-01-25T12:25:22.994Z,1.50
2023-01-25T12:28:34.218Z,1.50
2023-01-25T12:31:19.070Z,1.50
2023-01-25T12:34:04.921Z,1.40
2023-01-25T12:36:47.835Z,1.50
2023-01-25T12:39:21.842Z,1.50
2023-01-25T12:42:02.527Z,1.50
2023-01-25T12:44:39.081Z,1.50
2023-01-25T12:47:15.243Z,1.50
2023-01-25T12:49:58.963Z,1.60
2023-01-25T12:52:35.175Z,1.60
2023-01-25T12:55:07.665Z,1.50
2023-01-25T12:57:46.652Z,1.50
2023-01-25T13:00:24.113Z,1.50
2023-01-25T13:03:07.761Z,1.50
2023-01-25T13:05:52.061Z,1.60
2023-01-25T13:08:34.977Z,1.40
2023-01-25T13:11:13.453Z,1.40
2023-01-25T13:13:40.504Z,1.40
2023-01-25T13:16:30.382Z,1.40
2023-01-25T13:18:58.427Z,1.40
2023-01-25T13:21:37.262Z,1.40
2023-01-25T13:24:23.991Z,1.40
2023-01-25T13:26:54.164Z,1.40
2023-01-25T13:29:36.316Z,1.40
2023-01-25T13:32:04.767Z,1.40
2023-01-25T13:34:40.471Z,1.40
2023-01-25T13:37:30.097Z,1.40
2023-01-25T13:40:30.629Z,1.40
2023-01-25T13:43:16.673Z,1.40
2023-01-25T13:45:44.586Z,1.30
2023-01-25T13:48:11.286Z,1.30
2023-01-25T13:50:45.242Z,1.30
2023-01-25T13:53:14.999Z,1.40
2023-01-25T13:55:47.473Z,1.40
2023-01-25T13:58:32.175Z,1.30
2023-01-25T14:01:06.516Z,1.30
2023-01-25T14:03:55.663Z,1.20
2023-01-25T14:06:26.818Z,1.20
2023-01-25T14:08:56.645Z,1.30
2023-01-25T14:11:29.617Z,1.30
2023-01-25T14:14:21.164Z,1.30
2023-01-25T14:17:17.733Z,1.30
2023-01-25T14:19:55.406Z,1.30
2023-01-25T14:22:30.253Z,1.40
2023-01-25T14:25:17.854Z,1.30
2023-01-25T14:27:45.872Z,1.30
2023-01-25T14:30:30.831Z,1.30
2023-01-25T14:33:22.102Z,1.20
2023-01-25T14:35:55.475Z,1.20
2023-01-25T14:38:35.435Z,1.10
2023-01-25T14:41:11.155Z,1.10
2023-01-25T14:43:39.689Z,1.10
2023-01-25T14:46:27.223Z,1.10
2023-01-25T14:49:07.875Z,1.00
2023-01-25T14:51:39.438Z,1.10
2023-01-25T14:54:23.018Z,1.10
2023-01-25T14:56:54.588Z,1.10
2023-01-25T14:59:29.426Z,1.10
2023-01-25T15:02:21.476Z,1.10
2023-01-25T15:04:57.968Z,1.10
2023-01-25T15:07:45.299Z,1.10
2023-01-25T15:10:15.535Z,1.10
2023-01-25T15:12:42.460Z,1.00
2023-01-25T15:15:21.011Z,1.10
2023-01-25T15:17:49.936Z,1.10
2023-01-25T15:20:32.152Z,1.00
2023-01-25T15:23:23.373Z,1.10
2023-01-25T15:26:00.664Z,1.10
2023-01-25T15:28:29.890Z,1.00
2023-01-25T15:30:59.891Z,1.00
2023-01-25T15:33:29.569Z,1.00
2023-01-25T15:35:56.520Z,1.00
2023-01-25T15:38:24.532Z,1.00
2023-01-25T15:40:51.837Z,1.00
2023-01-25T15:43:20.061Z,1.00
2023-01-25T15:45:49.542Z,1.10
2023-01-25T15:48:19.581Z,1.00
2023-01-25T15:50:46.278Z,1.00
2023-01-25T15:53:18.188Z,1.10
2023-01-25T15:55:47.278Z,1.10
2023-01-25T15:58:24.033Z,1.10
2023-01-25T16:00:50.771Z,1.00
2023-01-25T16:03:20.724Z,1.10
2023-01-25T16:05:54.604Z,1.00
2023-01-25T16:08:21.276Z,1.00
2023-01-25T16:10:48.007Z,1.10
2023-01-25T16:13:14.876Z,1.00
2023-01-25T16:15:42.253Z,1.10
2023-01-25T16:18:14.063Z,1.10
2023-01-25T16:20:41.942Z,1.20
2023-01-25T16:23:08.648Z,1.10
2023-01-25T16:25:35.344Z,1.00
2023-01-25T16:28:02.107Z,1.00
2023-01-25T16:30:31.114Z,1.00
2023-01-25T16:32:57.975Z,1.00
2023-01-25T16:35:24.764Z,1.10
2023-01-25T16:37:51.482Z,1.10
2023-01-25T16:40:25.543Z,1.00
2023-01-25T16:42:52.371Z,1.10
2023-01-25T16:45:24.068Z,1.00
2023-01-25T16:47:51.620Z,1.00
2023-01-25T16:50:20.646Z,1.00
2023-01-25T16:52:49.980Z,1.00
2023-01-25T16:55:17.763Z,1.10
2023-01-25T16:57:48.797Z,1.00
2023-01-25T17:00:15.946Z,1.00
2023-01-25T17:02:56.990Z,1.00
2023-01-25T17:05:24.916Z,1.00
2023-01-25T17:07:52.897Z,1.10
2023-01-25T17:10:20.077Z,1.10
2023-01-25T17:18:29.436Z,1.00
2023-01-25T17:21:00.648Z,1.10
2023-01-25T17:23:28.359Z,1.00
2023-01-25T17:25:56.021Z,1.00
2023-01-25T17:28:23.784Z,1.00
2023-01-25T17:30:54.529Z,1.00
2023-01-25T17:33:21.371Z,1.00
2023-01-25T17:35:48.055Z,1.00
2023-01-25T17:38:15.805Z,1.00
2023-01-25T17:40:42.512Z,1.00
2023-01-25T17:43:09.201Z,1.00
2023-01-25T17:45:39.396Z,1.00
2023-01-25T17:48:08.767Z,1.00
2023-01-25T17:50:39.786Z,1.00
2023-01-25T17:53:07.185Z,1.00
2023-01-25T17:55:37.541Z,1.00
2023-01-25T17:58:04.668Z,1.10
2023-01-25T18:00:32.031Z,1.00
2023-01-25T18:02:58.775Z,1.00
2023-01-25T18:05:28.103Z,1.00
2023-01-25T18:07:54.952Z,1.00
2023-01-25T18:10:21.614Z,1.00
2023-01-25T18:13:03.740Z,1.00
2023-01-25T18:15:32.727Z,1.00
2023-01-25T18:18:00.199Z,1.00
2023-01-25T18:20:26.842Z,1.10
2023-01-25T18:22:53.970Z,1.00
2023-01-25T18:25:35.875Z,1.00
2023-01-25T18:28:03.308Z,1.00
2023-01-25T18:30:30.211Z,1.00
2023-01-25T18:32:56.857Z,1.00
2023-01-25T18:35:25.083Z,1.00
2023-01-25T18:37:52.089Z,1.00
2023-01-25T18:40:19.822Z,1.00
2023-01-25T18:42:46.711Z,1.00
2023-01-25T18:45:13.652Z,1.00
2023-01-25T18:47:40.354Z,1.00
2023-01-25T18:50:08.383Z,1.00
2023-01-25T18:52:35.909Z,1.00
2023-01-25T18:55:02.670Z,1.00
2023-01-25T18:57:29.533Z,1.00
2023-01-25T18:59:57.899Z,1.00
2023-01-25T19:02:27.068Z,1.00
2023-01-25T19:04:53.796Z,1.00
2023-01-25T19:07:20.467Z,1.00
2023-01-25T19:09:47.883Z,1.10
2023-01-25T19:12:14.658Z,1.00
2023-01-25T19:14:41.296Z,1.00
2023-01-25T19:17:08.782Z,1.00
2023-01-25T19:19:36.095Z,1.00
2023-01-25T19:22:02.887Z,1.00
2023-01-25T19:24:29.756Z,1.00
2023-01-25T19:26:56.938Z,1.00
2023-01-25T19:29:23.622Z,0.90
2023-01-25T19:31:50.939Z,1.00
2023-01-25T19:34:17.680Z,0.90
2023-01-25T19:36:53.591Z,1.00
2023-01-25T19:39:20.421Z,1.00
2023-01-25T19:41:47.360Z,1.00
2023-01-25T19:44:14.957Z,1.00
2023-01-25T19:46:42.467Z,1.00
2023-01-25T19:49:10.783Z,1.00
2023-01-25T19:51:41.403Z,1.00
2023-01-25T19:54:16.763Z,1.00
2023-01-25T19:56:46.765Z,1.00
2023-01-25T19:59:18.817Z,1.00
2023-01-25T20:01:46.381Z,0.90
2023-01-25T20:04:20.112Z,1.00
2023-01-25T20:06:47.337Z,0.90
2023-01-25T20:09:17.177Z,1.00
2023-01-25T20:11:44.360Z,0.90
2023-01-25T20:14:13.515Z,1.00
2023-01-25T20:16:40.588Z,0.90
2023-01-25T20:19:10.510Z,0.90
2023-01-25T20:21:39.478Z,0.90
2023-01-25T20:24:07.014Z,0.90
2023-01-25T20:26:38.884Z,0.90
2023-01-25T20:29:07.072Z,1.00
2023-01-25T20:31:39.212Z,1.00
2023-01-25T20:34:15.022Z,0.90
2023-01-25T20:36:42.596Z,0.90
2023-01-25T20:39:13.175Z,0.90
2023-01-25T20:41:39.837Z,0.90
2023-01-25T20:44:08.680Z,0.90
2023-01-25T20:46:40.719Z,0.90
2023-01-25T20:49:10.193Z,0.90
2023-01-25T20:51:37.171Z,0.90
2023-01-25T20:54:04.039Z,0.90
2023-01-25T20:56:31.715Z,0.90
2023-01-25T20:58:58.554Z,0.90
2023-01-25T21:01:33.223Z,0.90
2023-01-25T21:03:59.927Z,0.80
2023-01-25T21:06:27.879Z,0.80
2023-01-25T21:08:55.170Z,0.80
2023-01-25T21:11:25.124Z,0.90
2023-01-25T21:13:53.833Z,0.90
2023-01-25T21:16:21.972Z,0.90
2023-01-25T21:18:55.087Z,0.90
2023-01-25T21:21:25.804Z,0.90
2023-01-25T21:23:53.065Z,0.80
2023-01-25T21:26:22.567Z,0.80
2023-01-25T21:28:50.454Z,0.90
2023-01-25T21:31:25.373Z,0.90
2023-01-25T21:33:52.383Z,0.80
2023-01-25T21:36:19.376Z,0.80
2023-01-25T21:38:50.657Z,0.80
2023-01-25T21:41:36.436Z,0.80
2023-01-25T21:44:21.559Z,0.70
2023-01-25T21:47:16.385Z,0.70
2023-01-25T21:49:53.814Z,0.70
2023-01-25T21:52:20.754Z,0.70
2023-01-25T21:54:47.478Z,0.70
2023-01-25T21:57:14.114Z,0.80
2023-01-25T21:59:40.959Z,0.80
2023-01-25T22:02:11.562Z,0.80
2023-01-25T22:04:38.575Z,0.80
2023-01-25T22:07:07.424Z,0.70
2023-01-25T22:09:34.414Z,0.80
2023-01-25T22:12:01.892Z,0.80
2023-01-25T22:14:28.788Z,0.80
2023-01-25T22:16:58.673Z,0.70
2023-01-25T22:19:25.419Z,0.80
2023-01-25T22:21:52.127Z,0.70
2023-01-25T22:24:19.186Z,0.80
2023-01-25T22:29:19.699Z,0.70
2023-01-25T22:31:46.395Z,0.70
2023-01-25T22:34:13.213Z,0.70
2023-01-25T22:36:39.856Z,0.70
2023-01-25T22:39:06.754Z,0.60
2023-01-25T22:41:36.791Z,0.70
2023-01-25T22:44:03.694Z,0.60
2023-01-25T22:46:30.792Z,0.60
2023-01-25T22:48:58.752Z,0.60
2023-01-25T22:51:28.521Z,0.60
2023-01-25T22:53:57.001Z,0.60
2023-01-25T22:56:34.285Z,0.60
2023-01-25T22:59:01.512Z,0.60
2023-01-25T23:01:31.699Z,0.60
2023-01-25T23:03:58.797Z,0.60
2023-01-25T23:06:31.246Z,0.60
2023-01-25T23:08:59.848Z,0.60
2023-01-25T23:11:38.148Z,0.60
2023-01-25T23:14:30.147Z,0.60
2023-01-25T23:17:17.274Z,0.60
2023-01-25T23:19:44.067Z,0.60
2023-01-25T23:22:10.692Z,0.60
2023-01-25T23:24:37.391Z,0.60
2023-01-25T23:27:04.218Z,0.60
2023-01-25T23:29:31.313Z,0.60
2023-01-25T23:31:58.244Z,0.60
2023-01-25T23:34:25.429Z,0.60
2023-01-25T23:36:52.098Z,0.60
2023-01-25T23:39:18.850Z,0.60
2023-01-25T23:41:45.538Z,0.60
2023-01-25T23:44:12.196Z,0.60
2023-01-25T23:46:38.920Z,0.60
2023-01-25T23:49:05.684Z,0.60
2023-01-25T23:51:32.401Z,0.60
2023-01-25T23:53:59.108Z,0.60
2023-01-25T23:56:25.913Z,0.60
2023-01-25T23:58:52.815Z,0.70
